createdAt,value
2023-10-07T00:02:14.225Z,10.32
2023-10-07T00:05:18.264Z,10.34
2023-10-07T00:08:27.971Z,10.34
2023-10-07T00:11:31.493Z,10.40
2023-10-07T00:14:34.404Z,10.32
2023-10-07T00:17:40.779Z,10.31
2023-10-07T00:20:50.551Z,10.33
2023-10-07T00:23:56.699Z,10.30
2023-10-07T00:27:01.155Z,10.30
2023-10-07T00:30:14.009Z,10.35
2023-10-07T00:33:21.439Z,10.34
2023-10-07T00:36:33.371Z,10.33
2023-10-07T00:39:39.084Z,10.30
2023-10-07T00:42:46.419Z,10.28
2023-10-07T00:45:49.444Z,10.12
2023-10-07T00:48:58.193Z,10.07
2023-10-07T00:52:04.579Z,9.90
2023-10-07T00:55:09.351Z,9.96
2023-10-07T00:58:20.887Z,10.03
2023-10-07T01:01:23.582Z,9.96
2023-10-07T01:04:29.063Z,9.96
2023-10-07T01:07:32.926Z,9.87
2023-10-07T01:10:39.882Z,9.68
2023-10-07T01:13:51.646Z,9.73
2023-10-07T01:16:55.095Z,9.65
2023-10-07T01:19:58.389Z,9.64
2023-10-07T01:23:04.858Z,9.66
2023-10-07T01:26:17.805Z,9.73
2023-10-07T01:29:22.167Z,9.86
2023-10-07T01:32:24.835Z,9.79
2023-10-07T01:35:33.800Z,9.85
2023-10-07T01:38:42.122Z,9.89
2023-10-07T01:41:47.145Z,9.88
2023-10-07T01:44:55.810Z,9.86
2023-10-07T01:47:58.825Z,9.88
2023-10-07T01:51:03.410Z,9.89
2023-10-07T01:54:09.560Z,9.86
2023-10-07T01:57:12.584Z,9.92
2023-10-07T02:00:31.224Z,9.90
2023-10-07T02:03:34.425Z,9.94
2023-10-07T02:06:50.985Z,9.92
2023-10-07T02:09:55.966Z,9.89
2023-10-07T02:12:58.701Z,9.82
2023-10-07T02:16:06.728Z,9.86
2023-10-07T02:19:15.392Z,9.88
2023-10-07T02:22:29.725Z,9.89
2023-10-07T02:25:33.091Z,9.96
2023-10-07T02:28:35.849Z,10.02
2023-10-07T02:31:44.828Z,10.02
2023-10-07T02:34:53.874Z,10.04
2023-10-07T02:37:58.499Z,10.04
2023-10-07T02:41:08.320Z,10.05
2023-10-07T02:44:16.871Z,9.98
2023-10-07T02:47:20.422Z,9.91
2023-10-07T02:50:27.253Z,9.87
2023-10-07T02:53:36.558Z,9.48
2023-10-07T02:56:45.820Z,9.32
2023-10-07T03:00:01.685Z,9.24
2023-10-07T03:03:21.925Z,9.31
2023-10-07T03:06:29.491Z,9.51
2023-10-07T03:09:35.280Z,9.55
2023-10-07T03:12:39.216Z,9.50
2023-10-07T03:15:42.825Z,9.54
2023-10-07T03:18:56.635Z,9.57
2023-10-07T03:22:11.011Z,9.52
2023-10-07T03:25:18.490Z,9.49
2023-10-07T03:28:26.844Z,9.48
2023-10-07T03:31:41.623Z,9.50
2023-10-07T03:34:47.283Z,9.54
2023-10-07T03:37:55.516Z,9.49
2023-10-07T03:40:58.202Z,9.51
2023-10-07T03:44:00.870Z,9.38
2023-10-07T03:47:03.640Z,9.37
2023-10-07T03:50:26.220Z,9.29
2023-10-07T03:53:33.385Z,9.37
2023-10-07T03:56:36.086Z,9.39
2023-10-07T03:59:39.200Z,9.45
2023-10-07T04:02:46.199Z,9.45
2023-10-07T04:05:50.801Z,9.41
2023-10-07T04:08:57.920Z,9.25
2023-10-07T04:12:00.721Z,9.30
2023-10-07T04:15:03.967Z,9.29
2023-10-07T04:18:10.644Z,9.32
2023-10-07T04:21:13.429Z,9.40
2023-10-07T04:24:16.726Z,9.41
2023-10-07T04:27:22.998Z,9.40
2023-10-07T04:30:33.204Z,9.35
2023-10-07T04:33:41.281Z,9.39
2023-10-07T04:37:02.258Z,9.40
2023-10-07T04:40:07.972Z,9.37
2023-10-07T04:43:10.568Z,9.41
2023-10-07T04:46:33.473Z,9.39
2023-10-07T04:49:43.439Z,9.36
2023-10-07T04:52:52.374Z,9.37
2023-10-07T04:56:03.079Z,9.39
2023-10-07T04:59:07.642Z,9.32
2023-10-07T05:02:11.944Z,9.30
2023-10-07T05:05:14.835Z,9.31
2023-10-07T05:08:20.864Z,9.36
2023-10-07T05:11:27.660Z,9.36
2023-10-07T05:14:30.357Z,9.30
2023-10-07T05:17:37.769Z,9.30
2023-10-07T05:20:43.337Z,9.26
2023-10-07T05:23:46.120Z,9.29
2023-10-07T05:26:49.047Z,9.19
2023-10-07T05:29:51.762Z,9.32
2023-10-07T05:32:54.433Z,9.48
2023-10-07T05:36:01.722Z,9.60
2023-10-07T05:39:04.429Z,9.68
2023-10-07T05:42:07.523Z,9.78
2023-10-07T05:45:10.737Z,9.90
2023-10-07T05:48:13.376Z,9.92
2023-10-07T05:51:17.728Z,10.03
2023-10-07T05:54:20.420Z,10.12
2023-10-07T05:57:23.057Z,10.18
2023-10-07T06:00:26.687Z,10.25
2023-10-07T06:03:30.125Z,10.39
2023-10-07T06:06:32.834Z,10.49
2023-10-07T06:09:38.475Z,10.63
2023-10-07T06:12:41.748Z,10.75
2023-10-07T06:15:44.725Z,10.74
2023-10-07T06:18:47.408Z,10.70
2023-10-07T06:21:53.218Z,10.86
2023-10-07T06:24:57.239Z,11.05
2023-10-07T06:28:01.178Z,11.23
2023-10-07T06:31:12.244Z,11.41
2023-10-07T06:34:15.875Z,11.58
2023-10-07T06:37:26.821Z,11.73
2023-10-07T06:40:33.387Z,11.87
2023-10-07T06:43:36.140Z,12.02
2023-10-07T06:46:42.540Z,12.23
2023-10-07T06:49:45.892Z,12.65
2023-10-07T06:52:50.817Z,12.95
2023-10-07T06:55:54.465Z,13.31
2023-10-07T06:59:01.283Z,13.55
2023-10-07T07:02:07.944Z,13.72
2023-10-07T07:05:17.840Z,13.90
2023-10-07T07:08:24.434Z,14.23
2023-10-07T07:11:27.137Z,14.41
2023-10-07T07:14:34.892Z,14.63
2023-10-07T07:17:37.793Z,14.76
2023-10-07T07:20:50.430Z,14.92
2023-10-07T07:23:53.710Z,15.21
2023-10-07T07:26:58.126Z,15.41
2023-10-07T07:30:04.721Z,15.73
2023-10-07T07:33:09.647Z,15.94
2023-10-07T07:36:31.429Z,16.15
2023-10-07T07:39:37.319Z,16.32
2023-10-07T07:42:40.369Z,16.41
2023-10-07T07:45:42.985Z,16.51
2023-10-07T07:48:46.073Z,16.71
2023-10-07T07:51:54.802Z,16.78
2023-10-07T07:54:57.416Z,16.91
2023-10-07T07:58:00.361Z,17.07
2023-10-07T08:01:06.673Z,17.27
2023-10-07T08:04:18.585Z,17.41
2023-10-07T08:07:21.361Z,17.59
2023-10-07T08:10:24.327Z,17.74
2023-10-07T08:13:29.163Z,17.82
2023-10-07T08:16:31.885Z,17.96
2023-10-07T08:19:34.598Z,18.13
2023-10-07T08:22:46.974Z,18.15
2023-10-07T08:25:50.405Z,18.28
2023-10-07T08:28:59.182Z,18.32
2023-10-07T08:32:17.165Z,18.55
2023-10-07T08:35:19.961Z,18.64
2023-10-07T08:38:39.232Z,18.78
2023-10-07T08:41:42.191Z,18.94
2023-10-07T08:44:58.898Z,19.03
2023-10-07T08:48:18.087Z,19.17
2023-10-07T08:51:26.761Z,19.32
2023-10-07T08:54:39.056Z,19.45
2023-10-07T08:57:44.984Z,19.62
2023-10-07T09:00:51.761Z,19.64
2023-10-07T09:03:58.230Z,19.78
2023-10-07T09:07:02.039Z,19.93
2023-10-07T09:10:16.463Z,19.94
2023-10-07T09:13:29.842Z,20.05
2023-10-07T09:16:34.323Z,20.03
2023-10-07T09:19:37.992Z,20.09
2023-10-07T09:22:46.719Z,20.13
2023-10-07T09:25:56.530Z,20.25
2023-10-07T09:29:23.520Z,20.33
2023-10-07T09:32:33.641Z,20.36
2023-10-07T09:35:37.205Z,20.43
2023-10-07T09:38:44.929Z,20.57
2023-10-07T09:42:01.698Z,20.84
2023-10-07T09:45:08.369Z,20.95
2023-10-07T09:48:11.063Z,20.81
2023-10-07T09:51:24.280Z,21.11
2023-10-07T09:55:08.182Z,21.11
2023-10-07T09:58:38.056Z,21.39
2023-10-07T10:02:25.760Z,21.59
2023-10-07T10:05:30.112Z,21.66
2023-10-07T10:08:49.085Z,21.60
2023-10-07T10:12:15.574Z,21.94
2023-10-07T10:15:21.758Z,21.92
2023-10-07T10:18:37.138Z,21.83
2023-10-07T10:21:39.767Z,21.35
2023-10-07T10:24:43.971Z,21.40
2023-10-07T10:27:48.756Z,21.40
2023-10-07T10:30:55.096Z,21.57
2023-10-07T10:33:59.983Z,21.67
2023-10-07T10:37:07.197Z,21.68
2023-10-07T10:40:16.218Z,21.65
2023-10-07T10:43:25.640Z,21.82
2023-10-07T10:46:30.256Z,21.85
2023-10-07T10:49:33.833Z,21.72
2023-10-07T10:52:40.207Z,22.06
2023-10-07T10:55:44.141Z,22.17
2023-10-07T10:58:55.056Z,22.21
2023-10-07T11:01:58.216Z,22.11
2023-10-07T11:05:01.001Z,22.26
2023-10-07T11:08:05.911Z,22.13
2023-10-07T11:11:12.291Z,22.26
2023-10-07T11:14:21.881Z,22.36
2023-10-07T11:17:25.324Z,22.34
2023-10-07T11:20:34.550Z,22.40
2023-10-07T11:23:56.206Z,22.61
2023-10-07T11:27:01.812Z,22.46
2023-10-07T11:30:04.844Z,22.36
2023-10-07T11:33:18.403Z,22.19
2023-10-07T11:36:21.527Z,22.25
2023-10-07T11:39:24.213Z,22.47
2023-10-07T11:42:27.970Z,22.59
2023-10-07T11:45:30.728Z,22.61
2023-10-07T11:48:34.029Z,22.71
2023-10-07T11:51:36.683Z,22.80
2023-10-07T11:54:39.390Z,22.74
2023-10-07T11:57:42.038Z,22.55
2023-10-07T12:00:45.219Z,22.70
2023-10-07T12:03:48.261Z,22.69
2023-10-07T12:06:52.349Z,22.90
2023-10-07T12:09:55.403Z,23.10
2023-10-07T12:12:59.463Z,23.05
2023-10-07T12:16:05.869Z,23.02
2023-10-07T12:19:09.074Z,22.87
2023-10-07T12:22:14.643Z,23.12
2023-10-07T12:25:18.325Z,23.43
2023-10-07T12:28:22.053Z,23.20
2023-10-07T12:31:24.770Z,23.53
2023-10-07T12:34:28.022Z,23.38
2023-10-07T12:37:32.527Z,23.30
2023-10-07T12:40:35.164Z,23.22
2023-10-07T12:43:39.551Z,23.18
2023-10-07T12:46:44.812Z,23.23
2023-10-07T12:49:47.440Z,23.14
2023-10-07T12:52:52.428Z,23.15
2023-10-07T12:55:56.173Z,23.07
2023-10-07T12:58:58.920Z,22.69
2023-10-07T13:02:04.545Z,22.69
2023-10-07T13:05:10.658Z,22.69
2023-10-07T13:08:14.441Z,22.73
2023-10-07T13:11:17.352Z,22.76
2023-10-07T13:14:20.481Z,22.74
2023-10-07T13:17:23.191Z,22.88
2023-10-07T13:20:27.893Z,22.96
2023-10-07T13:23:30.856Z,22.94
2023-10-07T13:26:33.530Z,22.92
2023-10-07T13:29:37.372Z,22.94
2023-10-07T13:32:45.421Z,22.93
2023-10-07T13:35:48.220Z,22.84
2023-10-07T13:38:52.234Z,22.73
2023-10-07T13:41:54.960Z,22.64
2023-10-07T13:44:57.856Z,22.53
2023-10-07T13:48:04.819Z,22.71
2023-10-07T13:51:07.645Z,22.82
2023-10-07T13:54:24.072Z,22.82
2023-10-07T13:57:29.018Z,22.76
2023-10-07T14:00:36.733Z,22.77
2023-10-07T14:03:41.052Z,22.64
2023-10-07T14:06:43.930Z,22.61
2023-10-07T14:09:50.567Z,22.44
2023-10-07T14:12:53.327Z,22.37
2023-10-07T14:16:10.292Z,22.31
2023-10-07T14:19:23.737Z,22.21
2023-10-07T14:22:26.414Z,22.17
2023-10-07T14:25:29.145Z,22.09
2023-10-07T14:28:32.123Z,22.04
2023-10-07T14:31:36.014Z,21.89
2023-10-07T14:34:38.652Z,21.96
2023-10-07T14:37:41.361Z,21.82
2023-10-07T14:40:45.629Z,21.75
2023-10-07T14:43:48.445Z,21.72
2023-10-07T14:46:52.207Z,21.57
2023-10-07T14:49:55.786Z,21.61
2023-10-07T14:52:59.411Z,21.49
2023-10-07T14:56:13.332Z,21.52
2023-10-07T14:59:16.633Z,21.35
2023-10-07T15:02:19.926Z,21.27
2023-10-07T15:05:26.619Z,21.18
2023-10-07T15:08:31.484Z,21.14
2023-10-07T15:11:34.993Z,21.06
2023-10-07T15:14:37.682Z,20.93
2023-10-07T15:17:40.537Z,20.86
2023-10-07T15:20:44.697Z,20.83
2023-10-07T15:23:47.389Z,20.68
2023-10-07T15:26:50.036Z,20.49
2023-10-07T15:29:52.675Z,20.55
2023-10-07T15:32:55.331Z,20.48
2023-10-07T15:35:58.331Z,20.46
2023-10-07T15:39:03.824Z,20.36
2023-10-07T15:42:10.148Z,20.36
2023-10-07T15:45:15.548Z,20.27
2023-10-07T15:48:19.426Z,20.20
2023-10-07T15:51:22.726Z,20.06
2023-10-07T15:54:25.943Z,19.87
2023-10-07T15:57:29.284Z,19.69
2023-10-07T16:00:35.237Z,19.67
2023-10-07T16:03:39.399Z,19.54
2023-10-07T16:06:44.310Z,19.40
2023-10-07T16:09:47.172Z,19.33
2023-10-07T16:12:49.791Z,19.21
2023-10-07T16:15:56.407Z,19.18
2023-10-07T16:19:00.067Z,19.13
2023-10-07T16:22:03.127Z,19.04
2023-10-07T16:25:09.621Z,18.97
2023-10-07T16:28:12.550Z,18.90
2023-10-07T16:31:15.961Z,18.77
2023-10-07T16:34:18.634Z,18.74
2023-10-07T16:37:21.291Z,18.62
2023-10-07T16:40:23.932Z,18.48
2023-10-07T16:43:26.595Z,18.35
2023-10-07T16:46:30.966Z,18.19
2023-10-07T16:49:33.859Z,18.08
2023-10-07T16:52:39.221Z,17.95
2023-10-07T16:55:41.829Z,17.80
2023-10-07T16:58:44.671Z,17.72
2023-10-07T17:01:47.435Z,17.50
2023-10-07T17:04:51.231Z,17.33
2023-10-07T17:07:56.228Z,17.22
2023-10-07T17:10:59.046Z,17.09
2023-10-07T17:14:01.777Z,17.04
2023-10-07T17:17:04.583Z,16.95
2023-10-07T17:20:08.834Z,16.82
2023-10-07T17:23:13.131Z,16.74
2023-10-07T17:26:16.070Z,16.74
2023-10-07T17:29:18.813Z,16.72
2023-10-07T17:32:22.289Z,16.67
2023-10-07T17:35:25.075Z,16.69
2023-10-07T17:38:28.078Z,16.69
2023-10-07T17:41:32.142Z,16.73
2023-10-07T17:44:35.132Z,16.72
2023-10-07T17:47:39.755Z,16.67
2023-10-07T17:50:42.602Z,16.57
2023-10-07T17:53:45.277Z,16.64
2023-10-07T17:56:47.880Z,16.61
2023-10-07T17:59:50.712Z,16.43
2023-10-07T18:02:55.218Z,16.46
2023-10-07T18:06:06.310Z,16.32
2023-10-07T18:09:12.215Z,16.38
2023-10-07T18:12:15.863Z,16.37
2023-10-07T18:15:19.426Z,16.30
2023-10-07T18:18:22.136Z,16.27
2023-10-07T18:21:25.454Z,16.16
2023-10-07T18:24:28.232Z,16.27
2023-10-07T18:27:31.194Z,16.25
2023-10-07T18:30:34.408Z,16.28
2023-10-07T18:33:37.621Z,16.30
2023-10-07T18:36:40.550Z,16.27
2023-10-07T18:39:43.308Z,16.31
2023-10-07T18:42:46.331Z,16.35
2023-10-07T18:45:53.850Z,16.28
2023-10-07T18:48:56.788Z,16.21
2023-10-07T18:51:59.445Z,16.22
2023-10-07T18:55:02.412Z,16.22
2023-10-07T18:58:09.583Z,16.27
2023-10-07T19:01:15.346Z,16.38
2023-10-07T19:04:18.230Z,16.21
2023-10-07T19:07:21.173Z,16.16
2023-10-07T19:10:24.201Z,16.01
2023-10-07T19:13:27.066Z,15.99
2023-10-07T19:16:30.429Z,16.04
2023-10-07T19:19:33.466Z,16.13
2023-10-07T19:22:42.307Z,16.28
2023-10-07T19:25:48.424Z,16.40
2023-10-07T19:28:51.577Z,16.46
2023-10-07T19:31:56.008Z,16.51
2023-10-07T19:34:58.690Z,16.55
2023-10-07T19:38:01.611Z,16.65
2023-10-07T19:41:05.695Z,16.74
2023-10-07T19:44:08.564Z,16.75
2023-10-07T19:47:11.663Z,16.79
2023-10-07T19:50:16.213Z,16.84
2023-10-07T19:53:19.252Z,16.90
2023-10-07T19:56:23.208Z,16.88
2023-10-07T19:59:26.026Z,16.86
2023-10-07T20:02:29.062Z,16.74
2023-10-07T20:05:31.896Z,16.72
2023-10-07T20:08:34.696Z,16.68
2023-10-07T20:11:37.563Z,16.60
2023-10-07T20:14:40.589Z,16.55
2023-10-07T20:17:43.992Z,16.52
2023-10-07T20:20:57.089Z,16.48
2023-10-07T20:23:59.676Z,16.48
2023-10-07T20:27:02.374Z,16.43
2023-10-07T20:30:08.605Z,16.38
2023-10-07T20:33:11.254Z,16.32
2023-10-07T20:36:15.234Z,16.28
2023-10-07T20:39:17.872Z,16.31
2023-10-07T20:42:22.482Z,16.35
2023-10-07T20:45:25.127Z,16.47
2023-10-07T20:48:29.062Z,16.52
2023-10-07T20:51:31.751Z,16.58
2023-10-07T20:54:34.770Z,16.57
2023-10-07T20:57:37.901Z,16.65
2023-10-07T21:00:42.713Z,16.66
2023-10-07T21:03:49.601Z,16.77
2023-10-07T21:06:52.387Z,16.84
2023-10-07T21:09:55.016Z,16.83
2023-10-07T21:12:57.656Z,16.85
2023-10-07T21:16:00.358Z,16.83
2023-10-07T21:19:03.249Z,16.81
2023-10-07T21:22:06.064Z,16.85
2023-10-07T21:25:09.206Z,16.86
2023-10-07T21:28:12.632Z,16.92
2023-10-07T21:31:15.780Z,16.99
2023-10-07T21:34:18.474Z,17.08
2023-10-07T21:37:21.812Z,17.09
2023-10-07T21:40:24.503Z,17.08
2023-10-07T21:43:27.966Z,17.09
2023-10-07T21:46:30.627Z,17.07
2023-10-07T21:49:33.780Z,17.06
2023-10-07T21:52:36.419Z,17.11
2023-10-07T21:55:39.330Z,17.12
2023-10-07T21:58:42.100Z,17.14
2023-10-07T22:01:44.718Z,17.12
2023-10-07T22:04:49.617Z,17.13
2023-10-07T22:07:52.612Z,17.10
2023-10-07T22:10:55.321Z,17.09
2023-10-07T22:14:00.780Z,17.05
2023-10-07T22:17:06.755Z,16.99
2023-10-07T22:20:17.416Z,16.92
2023-10-07T22:23:22.857Z,16.85
2023-10-07T22:26:25.746Z,16.86
2023-10-07T22:29:28.961Z,16.89
2023-10-07T22:32:34.798Z,16.94
2023-10-07T22:35:42.169Z,16.95
2023-10-07T22:38:49.561Z,16.94
2023-10-07T22:41:57.786Z,16.94
2023-10-07T22:45:00.504Z,16.94
2023-10-07T22:48:07.720Z,16.90
2023-10-07T22:51:10.601Z,16.86
2023-10-07T22:54:19.075Z,16.84
2023-10-07T22:57:22.905Z,16.83
2023-10-07T23:00:25.747Z,16.75
2023-10-07T23:03:39.950Z,16.82
2023-10-07T23:07:13.640Z,16.83
2023-10-07T23:10:26.893Z,16.83
2023-10-07T23:13:34.037Z,16.81
2023-10-07T23:16:41.187Z,16.87
2023-10-07T23:19:43.895Z,16.86
2023-10-07T23:22:50.049Z,16.85
2023-10-07T23:25:59.004Z,16.83
2023-10-07T23:29:03.613Z,16.78
2023-10-07T23:32:15.922Z,16.73
2023-10-07T23:35:21.748Z,16.74
2023-10-07T23:38:26.279Z,16.73
2023-10-07T23:41:29.108Z,16.64
2023-10-07T23:44:33.751Z,16.58
2023-10-07T23:47:36.759Z,16.56
2023-10-07T23:50:44.429Z,16.56
2023-10-07T23:53:51.043Z,16.53
2023-10-07T23:56:53.959Z,16.56
2023-10-07T23:59:58.557Z,16.55
